Time;durP1;ratioP1;P1;durP2;ratioP2;P2;SDS_P1;SDS_P2;PMS_P1;PMS_P2;Temp;Humidity;BMP_temperature;BMP_pressure;BME280_temperature;BME280_humidity;BME280_pressure;Samples;Min_cycle;Max_cycle;Signal;HPM_P1;HPM_P2
2023/04/12 00:02:20;;;;;;;2.50;1.63;;;12.00;99.90;;;12.19;nan;100082.91;4995603;28;20641;-69
2023/04/12 00:04:54;;;;;;;1.07;0.97;;;12.00;99.90;;;12.03;nan;100072.94;4991542;28;20658;-67
2023/04/12 00:07:26;;;;;;;1.40;1.30;;;11.90;99.90;;;11.90;nan;100064.53;4994372;28;20619;-67
2023/04/12 00:09:53;;;;;;;1.17;1.17;;;11.70;99.90;;;11.86;nan;100063.13;4991794;28;20681;-68
2023/04/12 00:12:20;;;;;;;1.43;1.07;;;11.60;99.90;;;11.83;nan;100059.94;4989598;28;20644;-68
2023/04/12 00:14:47;;;;;;;1.00;1.00;;;11.60;99.90;;;11.74;nan;100056.34;4992838;28;21285;-67
2023/04/12 00:17:14;;;;;;;1.70;1.40;;;11.50;99.90;;;11.74;nan;100058.94;4993305;28;20633;-67
2023/04/12 00:19:41;;;;;;;2.40;1.30;;;11.50;99.90;;;11.68;nan;100056.88;4994411;28;21056;-68
2023/04/12 00:22:09;;;;;;;2.63;1.00;;;11.50;99.90;;;11.65;nan;100046.63;4995134;28;20630;-67
2023/04/12 00:24:39;;;;;;;0.83;0.83;;;11.40;99.90;;;11.60;nan;100041.81;4989337;28;20952;-68
2023/04/12 00:27:07;;;;;;;0.83;0.83;;;11.40;99.90;;;11.58;nan;100032.47;4992825;28;20639;-68
2023/04/12 00:29:34;;;;;;;2.60;1.23;;;11.30;99.90;;;11.57;nan;100031.63;4993336;28;20669;-67
2023/04/12 00:32:02;;;;;;;2.40;1.00;;;11.30;99.90;;;11.56;nan;100027.34;4993888;28;20704;-67
2023/04/12 00:34:29;;;;;;;1.90;1.40;;;11.30;99.90;;;11.56;nan;100044.81;4994999;28;21252;-67
2023/04/12 00:36:56;;;;;;;2.30;1.90;;;11.30;99.90;;;11.59;nan;100041.94;4991880;28;20676;-67
2023/04/12 00:39:23;;;;;;;1.60;1.50;;;11.40;99.90;;;11.62;nan;100034.69;4992837;28;20634;-67
2023/04/12 00:41:50;;;;;;;1.03;1.03;;;11.40;99.90;;;11.64;nan;100034.53;4993160;28;20642;-67
2023/04/12 00:44:17;;;;;;;1.67;1.10;;;11.40;99.90;;;11.62;nan;100039.06;4993797;28;20614;-69
2023/04/12 00:46:45;;;;;;;1.13;1.13;;;11.40;99.90;;;11.60;nan;100025.31;4993364;28;20634;-67
2023/04/12 00:49:12;;;;;;;1.40;1.20;;;11.40;99.90;;;11.54;nan;100026.66;4992788;28;20657;-68
2023/04/12 00:51:40;;;;;;;1.23;1.13;;;11.40;99.90;;;11.45;nan;100029.22;4991626;28;20973;-69
2023/04/12 00:54:07;;;;;;;1.33;1.20;;;11.30;99.90;;;11.39;nan;100024.53;5007536;28;20703;-66
2023/04/12 00:56:35;;;;;;;3.90;1.57;;;11.20;99.90;;;11.28;nan;100035.06;4992949;28;20646;-68
2023/04/12 00:59:02;;;;;;;1.07;0.93;;;11.10;99.90;;;11.20;nan;100029.66;4980209;28;20645;-67
2023/04/12 01:01:30;;;;;;;4.10;0.73;;;11.00;99.90;;;11.16;nan;100023.03;4993361;28;20626;-67
2023/04/12 01:04:00;;;;;;;1.10;1.10;;;11.00;99.90;;;11.15;nan;100027.41;4986327;28;20647;-68
2023/04/12 01:07:06;;;;;;;0.90;0.90;;;11.00;99.90;;;11.12;nan;100021.59;4987707;28;21012;-67
2023/04/12 01:09:53;;;;;;;0.97;0.90;;;10.90;99.90;;;11.07;nan;100011.56;4987798;28;21037;-67
2023/04/12 01:12:35;;;;;;;1.37;0.80;;;10.90;99.90;;;10.95;nan;100007.34;4990373;28;20618;-67
2023/04/12 01:15:12;;;;;;;0.93;0.90;;;10.80;99.90;;;10.87;nan;100013.22;4990376;28;20662;-67
2023/04/12 01:17:56;;;;;;;0.90;0.90;;;10.70;99.90;;;10.77;nan;100006.28;4995542;28;20638;-67
2023/04/12 01:20:30;;;;;;;1.10;1.00;;;10.60;99.90;;;10.74;nan;99996.09;4992328;28;20642;-67
2023/04/12 01:23:08;;;;;;;1.13;1.13;;;10.50;99.90;;;10.69;nan;99993.84;4975471;28;20681;-67
2023/04/12 01:26:03;;;;;;;0.73;0.73;;;10.50;99.90;;;10.66;nan;99982.84;4991719;28;20658;-67
2023/04/12 01:28:33;;;;;;;0.40;0.40;;;10.50;99.90;;;10.62;nan;99978.84;4991995;28;20641;-67
2023/04/12 01:31:02;;;;;;;4.53;1.10;;;10.40;99.90;;;10.60;nan;99973.75;4992877;28;21188;-67
2023/04/12 01:33:30;;;;;;;1.40;1.30;;;10.40;99.90;;;10.58;nan;99975.69;4993033;28;20668;-67
2023/04/12 01:36:00;;;;;;;5.60;1.10;;;10.40;99.90;;;10.55;nan;99973.31;4988107;28;20666;-67
2023/04/12 01:38:27;;;;;;;2.80;0.93;;;10.40;99.90;;;10.59;nan;99968.66;4971540;28;21163;-67
2023/04/12 01:40:55;;;;;;;1.53;1.10;;;10.40;99.90;;;10.56;nan;99951.47;4971521;28;20665;-69
2023/04/12 01:43:22;;;;;;;0.97;0.83;;;10.40;99.90;;;10.55;nan;99947.22;4986620;28;21259;-67
2023/04/12 01:45:49;;;;;;;0.77;0.77;;;10.30;99.90;;;10.54;nan;99939.53;4987146;28;20668;-67
2023/04/12 01:48:17;;;;;;;0.90;0.90;;;10.40;99.90;;;10.55;nan;99947.22;4990449;28;20707;-67
2023/04/12 01:51:03;;;;;;;1.33;1.10;;;10.30;99.90;;;10.51;nan;99934.56;4989930;28;20635;-67
2023/04/12 01:53:52;;;;;;;0.97;0.97;;;10.30;99.90;;;10.52;nan;99928.41;4991675;28;20637;-67
2023/04/12 01:56:21;;;;;;;0.83;0.83;;;10.30;99.90;;;10.50;nan;99922.47;5003990;28;20692;-68
2023/04/12 01:58:52;;;;;;;0.60;0.60;;;10.30;99.90;;;10.46;nan;99923.66;4988864;28;20637;-67
2023/04/12 02:01:21;;;;;;;2.13;1.00;;;10.30;99.90;;;10.40;nan;99919.78;4985414;28;20908;-67
2023/04/12 02:03:49;;;;;;;4.10;0.83;;;10.20;99.90;;;10.36;nan;99907.13;4989906;28;20643;-67
2023/04/12 02:06:20;;;;;;;1.30;1.20;;;10.20;99.90;;;10.33;nan;99897.78;4989691;28;20665;-66
2023/04/12 02:08:47;;;;;;;0.90;0.70;;;10.20;99.90;;;10.24;nan;99895.09;4991337;28;20666;-68
2023/04/12 02:11:14;;;;;;;1.53;1.10;;;10.10;99.90;;;10.24;nan;99893.34;4986758;28;20635;-67
2023/04/12 02:13:41;;;;;;;1.90;0.93;;;10.10;99.90;;;10.24;nan;99895.09;4991102;28;20709;-67
2023/04/12 02:16:09;;;;;;;0.80;0.70;;;10.10;99.90;;;10.20;nan;99889.28;4991688;28;20658;-66
2023/04/12 02:18:36;;;;;;;2.50;1.13;;;10.10;99.90;;;10.18;nan;99893.81;4991807;28;20606;-67
2023/04/12 02:21:03;;;;;;;0.97;0.97;;;10.00;99.90;;;10.17;nan;99886.97;4994846;28;21237;-68
2023/04/12 02:23:30;;;;;;;1.23;1.13;;;10.00;99.90;;;10.13;nan;99875.97;4992208;28;20633;-67
2023/04/12 02:25:57;;;;;;;1.00;0.73;;;10.00;99.90;;;10.10;nan;99885.75;4990338;28;20675;-68
2023/04/12 02:28:24;;;;;;;0.77;0.77;;;9.90;99.90;;;10.03;nan;99882.81;4991566;28;20657;-66
2023/04/12 02:30:52;;;;;;;0.83;0.83;;;9.90;99.90;;;9.99;nan;99875.38;4989568;28;20684;-67
2023/04/12 02:33:26;;;;;;;1.23;0.80;;;9.80;99.90;;;9.98;nan;99871.97;4983460;28;20873;-67
2023/04/12 02:35:56;;;;;;;3.07;0.77;;;9.80;99.90;;;9.87;nan;99856.38;4992805;28;20738;-67
2023/04/12 02:38:23;;;;;;;0.90;0.60;;;9.70;99.90;;;9.90;nan;99855.31;4991927;28;20614;-67
2023/04/12 02:40:50;;;;;;;0.40;0.40;;;9.70;99.90;;;9.89;nan;99853.63;4990977;28;21104;-68
2023/04/12 02:43:17;;;;;;;0.43;0.43;;;9.70;99.90;;;9.92;nan;99849.00;4991987;28;20646;-67
2023/04/12 02:45:44;;;;;;;0.80;0.80;;;9.70;99.90;;;9.93;nan;99848.06;5000755;28;21380;-67
2023/04/12 02:48:11;;;;;;;2.00;1.30;;;9.80;99.90;;;9.94;nan;99833.25;4993370;28;20748;-67
2023/04/12 02:50:38;;;;;;;1.70;1.00;;;9.80;99.90;;;9.92;nan;99832.56;4991329;28;20665;-68
2023/04/12 02:53:05;;;;;;;0.80;0.80;;;9.70;99.90;;;9.89;nan;99825.81;4989936;28;20692;-67
2023/04/12 02:55:32;;;;;;;1.27;1.03;;;9.70;99.90;;;9.86;nan;99817.44;4995392;28;20670;-68
2023/04/12 02:57:59;;;;;;;1.10;0.80;;;9.70;99.90;;;9.88;nan;99823.34;4998250;28;20641;-67
2023/04/12 03:00:26;;;;;;;2.30;0.60;;;9.70;99.90;;;9.86;nan;99820.03;4996953;28;20638;-68
2023/04/12 03:02:54;;;;;;;1.13;1.10;;;9.70;99.90;;;9.86;nan;99809.63;4999890;28;20634;-67
2023/04/12 03:05:21;;;;;;;1.00;0.90;;;9.70;99.90;;;9.86;nan;99807.00;5003787;28;20701;-66
2023/04/12 03:07:48;;;;;;;1.20;1.03;;;9.70;99.90;;;9.87;nan;99804.25;4991780;28;21308;-67
2023/04/12 03:10:15;;;;;;;1.30;1.20;;;9.70;99.90;;;9.86;nan;99797.38;4989966;28;21067;-68
2023/04/12 03:12:41;;;;;;;0.80;0.77;;;9.70;99.90;;;9.85;nan;99792.31;4991166;28;21170;-67
2023/04/12 03:15:09;;;;;;;0.67;0.67;;;9.70;99.90;;;9.87;nan;99790.41;4990778;28;21102;-68
2023/04/12 03:17:36;;;;;;;1.50;1.40;;;9.70;99.90;;;9.87;nan;99798.22;5001200;28;20627;-67
2023/04/12 03:20:08;;;;;;;1.70;1.40;;;9.70;99.90;;;9.92;nan;99785.66;4992530;28;20645;-68
2023/04/12 03:22:36;;;;;;;2.20;1.40;;;9.70;99.90;;;9.94;nan;99781.13;4990608;28;20631;-67
2023/04/12 03:25:04;;;;;;;3.40;2.30;;;9.80;99.90;;;9.98;nan;99780.75;4990491;28;20724;-67
2023/04/12 03:27:31;;;;;;;1.87;1.70;;;9.80;99.90;;;9.96;nan;99769.66;4990387;28;20638;-67
2023/04/12 03:29:58;;;;;;;1.47;1.47;;;9.80;99.90;;;9.98;nan;99767.72;4991141;28;20715;-67
2023/04/12 03:32:25;;;;;;;3.93;1.50;;;9.80;99.90;;;10.00;nan;99757.19;4991129;28;20634;-68
2023/04/12 03:34:52;;;;;;;1.00;0.90;;;9.80;99.90;;;9.97;nan;99750.44;4990949;28;20656;-67
2023/04/12 03:37:19;;;;;;;1.30;1.20;;;9.80;99.90;;;9.95;nan;99736.72;4990155;28;20638;-67
2023/04/12 03:39:46;;;;;;;1.63;1.40;;;9.80;99.90;;;9.91;nan;99729.28;4991669;28;20638;-67
2023/04/12 03:42:14;;;;;;;1.37;1.27;;;9.80;99.90;;;9.93;nan;99727.34;4994151;28;20642;-67
2023/04/12 03:44:56;;;;;;;0.80;0.80;;;9.80;99.90;;;9.97;nan;99719.16;4994619;28;20676;-69
2023/04/12 03:47:23;;;;;;;1.57;1.47;;;9.80;99.90;;;9.97;nan;99713.13;4993722;28;21269;-67
2023/04/12 03:49:49;;;;;;;1.20;1.10;;;9.90;99.90;;;9.94;nan;99709.00;5003967;28;20672;-67
2023/04/12 03:52:35;;;;;;;0.87;0.87;;;9.80;99.90;;;9.93;nan;99709.13;5002564;28;20636;-67
2023/04/12 03:55:04;;;;;;;0.60;0.40;;;9.80;99.90;;;9.93;nan;99696.09;4996704;28;20658;-67
2023/04/12 03:57:30;;;;;;;0.87;0.87;;;9.80;99.90;;;9.92;nan;99694.47;5010234;28;20636;-67
2023/04/12 03:59:58;;;;;;;0.60;0.50;;;9.80;99.90;;;9.91;nan;99678.00;4999548;28;20641;-68
2023/04/12 04:02:26;;;;;;;0.80;0.80;;;9.80;99.90;;;9.94;nan;99676.91;4995393;28;20630;-67
2023/04/12 04:04:53;;;;;;;1.10;1.00;;;9.80;99.90;;;9.94;nan;99671.69;4994478;28;21268;-66
2023/04/12 04:07:21;;;;;;;2.40;0.93;;;9.80;99.90;;;9.91;nan;99666.72;4991029;28;21022;-67
2023/04/12 04:09:48;;;;;;;1.20;1.00;;;9.80;99.90;;;9.92;nan;99669.19;4986549;28;21267;-69
2023/04/12 04:12:15;;;;;;;1.23;0.80;;;9.80;99.90;;;9.87;nan;99655.75;5002778;28;21201;-67
2023/04/12 04:14:43;;;;;;;0.80;0.80;;;9.80;99.90;;;9.85;nan;99651.63;4996671;28;20663;-67
2023/04/12 04:17:10;;;;;;;0.67;0.67;;;9.70;99.90;;;9.91;nan;99645.88;4993482;28;20633;-67
2023/04/12 04:19:37;;;;;;;0.67;0.67;;;9.80;99.90;;;9.88;nan;99640.97;4993320;28;20634;-67
2023/04/12 04:22:04;;;;;;;0.87;0.70;;;9.70;99.90;;;9.83;nan;99636.13;4993638;28;21240;-69
2023/04/12 04:24:33;;;;;;;2.30;0.87;;;9.70;99.90;;;9.82;nan;99625.81;4993488;28;20668;-67
2023/04/12 04:26:59;;;;;;;0.93;0.93;;;9.70;99.90;;;9.83;nan;99622.28;4998353;28;20637;-67
2023/04/12 04:29:28;;;;;;;4.43;0.70;;;9.70;99.90;;;9.80;nan;99612.09;4997262;28;21045;-67
2023/04/12 04:31:56;;;;;;;0.63;0.63;;;9.70;99.90;;;9.75;nan;99609.88;4990855;28;20634;-67
2023/04/12 04:34:24;;;;;;;0.40;0.40;;;9.60;99.90;;;9.73;nan;99611.00;4984710;28;20697;-66
2023/04/12 04:36:51;;;;;;;0.30;0.30;;;9.60;99.90;;;9.74;nan;99607.41;5006656;28;20640;-66
2023/04/12 04:39:18;;;;;;;0.40;0.40;;;9.60;99.90;;;9.71;nan;99605.88;5013903;28;20643;-67
2023/04/12 04:41:45;;;;;;;0.83;0.83;;;9.60;99.90;;;9.62;nan;99606.69;4999644;28;21308;-67
2023/04/12 04:44:13;;;;;;;0.63;0.53;;;9.50;99.90;;;9.63;nan;99605.72;4992980;28;20638;-67
2023/04/12 04:46:40;;;;;;;0.70;0.70;;;9.50;99.90;;;9.65;nan;99608.19;4988399;28;20784;-67
2023/04/12 04:49:07;;;;;;;0.60;0.50;;;9.50;99.90;;;9.61;nan;99606.78;4993446;28;20642;-68
2023/04/12 04:51:35;;;;;;;0.60;0.60;;;9.50;99.90;;;9.57;nan;99602.78;4982700;28;20724;-67
2023/04/12 04:54:02;;;;;;;0.50;0.50;;;9.40;99.90;;;9.57;nan;99600.19;4994384;28;20617;-67
2023/04/12 04:56:29;;;;;;;0.60;0.60;;;9.40;99.90;;;9.62;nan;99587.63;5003606;28;20641;-67
2023/04/12 04:58:56;;;;;;;0.43;0.43;;;9.50;99.90;;;9.56;nan;99598.56;4994526;28;20610;-67
2023/04/12 05:01:26;;;;;;;0.40;0.40;;;9.40;99.90;;;9.53;nan;99599.63;4991680;28;21049;-67
2023/04/12 05:03:54;;;;;;;0.97;0.97;;;9.40;99.90;;;9.55;nan;99589.09;4993132;28;20630;-67
2023/04/12 05:06:22;;;;;;;0.40;0.40;;;9.40;99.90;;;9.53;nan;99591.00;4992299;28;21228;-67
2023/04/12 05:08:49;;;;;;;0.73;0.73;;;9.40;99.90;;;9.47;nan;99591.50;4991185;28;20641;-66
2023/04/12 05:11:15;;;;;;;1.33;0.70;;;9.30;99.90;;;9.39;nan;99592.97;4992996;28;21031;-68
2023/04/12 05:13:42;;;;;;;0.83;0.50;;;9.30;99.90;;;9.38;nan;99593.94;4991981;28;21284;-66
2023/04/12 05:16:10;;;;;;;0.30;0.30;;;9.20;99.90;;;9.41;nan;99574.63;4992923;28;20650;-68
2023/04/12 05:18:38;;;;;;;0.53;0.53;;;9.30;99.90;;;9.45;nan;99564.78;4983071;28;21436;-69
2023/04/12 05:21:05;;;;;;;0.33;0.33;;;9.30;99.90;;;9.46;nan;99566.41;4987291;28;20654;-67
2023/04/12 05:23:36;;;;;;;1.53;1.07;;;9.30;99.90;;;9.43;nan;99553.66;4992900;28;20618;-67
2023/04/12 05:26:04;;;;;;;0.63;0.63;;;9.30;99.90;;;9.41;nan;99552.97;4992728;28;20712;-67
2023/04/12 05:28:31;;;;;;;0.40;0.40;;;9.30;99.90;;;9.42;nan;99547.63;4992271;28;20638;-67
2023/04/12 05:30:58;;;;;;;1.27;0.90;;;9.30;99.90;;;9.43;nan;99545.88;4990648;28;20727;-68
2023/04/12 05:33:25;;;;;;;0.30;0.30;;;9.30;99.90;;;9.41;nan;99538.19;4992446;28;20629;-67
2023/04/12 05:35:52;;;;;;;1.83;1.17;;;9.30;99.90;;;9.43;nan;99528.47;4992230;28;21233;-67
2023/04/12 05:38:19;;;;;;;0.40;0.40;;;9.30;99.90;;;9.43;nan;99515.44;4993866;28;20629;-67
2023/04/12 05:40:48;;;;;;;0.70;0.70;;;9.30;99.90;;;9.41;nan;99503.50;4992850;28;20677;-67
2023/04/12 05:43:16;;;;;;;0.97;0.97;;;9.30;99.90;;;9.42;nan;99505.97;4993065;28;20682;-67
2023/04/12 05:45:43;;;;;;;0.50;0.50;;;9.30;99.90;;;9.47;nan;99497.78;4993147;28;21023;-67
2023/04/12 05:48:10;;;;;;;0.90;0.50;;;9.30;99.90;;;9.47;nan;99488.19;4990816;28;20645;-67
2023/04/12 05:50:37;;;;;;;0.67;0.67;;;9.30;99.90;;;9.47;nan;99493.41;4992051;28;20662;-67
2023/04/12 05:53:04;;;;;;;1.47;0.67;;;9.40;99.90;;;9.52;nan;99493.00;4992897;28;20609;-69
2023/04/12 05:55:31;;;;;;;0.97;0.90;;;9.40;99.90;;;9.49;nan;99473.25;4992203;28;20671;-67
2023/04/12 05:57:58;;;;;;;0.57;0.57;;;9.40;99.90;;;9.46;nan;99481.31;5012817;28;20630;-68
2023/04/12 06:00:26;;;;;;;1.57;0.90;;;9.40;99.90;;;9.52;nan;99461.78;5001726;28;20639;-68
2023/04/12 06:02:53;;;;;;;0.40;0.40;;;9.40;99.90;;;9.52;nan;99446.94;4992550;28;20645;-67
2023/04/12 06:05:21;;;;;;;2.50;0.80;;;9.40;99.90;;;9.53;nan;99450.38;4996444;28;20650;-69
2023/04/12 06:07:48;;;;;;;0.40;0.40;;;9.40;99.90;;;9.52;nan;99446.94;5011721;28;20613;-67
2023/04/12 06:10:16;;;;;;;0.87;0.87;;;9.40;99.90;;;9.56;nan;99431.91;5002138;28;20662;-67
2023/04/12 06:12:44;;;;;;;1.90;1.40;;;9.40;99.90;;;9.60;nan;99434.13;4987854;28;20647;-67
2023/04/12 06:15:11;;;;;;;0.90;0.90;;;9.40;99.90;;;9.60;nan;99426.31;4987374;28;21010;-67
2023/04/12 06:17:38;;;;;;;0.80;0.80;;;9.50;99.90;;;9.64;nan;99440.69;4992195;28;20626;-68
2023/04/12 06:20:09;;;;;;;0.87;0.87;;;9.50;99.90;;;9.66;nan;99432.75;5001938;28;20640;-67
2023/04/12 06:22:37;;;;;;;1.00;1.00;;;9.50;99.90;;;9.68;nan;99436.03;5008832;28;20752;-66
2023/04/12 06:25:05;;;;;;;1.83;0.57;;;9.50;99.90;;;9.67;nan;99426.59;5003050;28;20677;-67
2023/04/12 06:27:31;;;;;;;1.00;1.00;;;9.60;99.90;;;9.75;nan;99432.75;4996303;28;20649;-68
2023/04/12 06:29:58;;;;;;;0.60;0.60;;;9.60;99.90;;;9.71;nan;99433.19;4991540;28;20648;-67
2023/04/12 06:32:25;;;;;;;0.57;0.57;;;9.60;99.90;;;9.74;nan;99427.69;4991867;28;20634;-68
2023/04/12 06:34:53;;;;;;;0.70;0.60;;;9.60;99.90;;;9.77;nan;99430.03;4988804;28;20659;-66
2023/04/12 06:37:21;;;;;;;0.50;0.50;;;9.60;99.90;;;9.76;nan;99429.22;4997070;28;21074;-67
2023/04/12 06:39:48;;;;;;;0.50;0.50;;;9.60;99.90;;;9.77;nan;99424.81;4996393;28;21008;-67
2023/04/12 06:42:16;;;;;;;0.70;0.67;;;9.60;99.90;;;9.80;nan;99409.75;4982912;28;21009;-67
2023/04/12 06:44:43;;;;;;;0.93;0.70;;;9.70;99.90;;;9.80;nan;99401.09;4993012;28;21450;-68
2023/04/12 06:47:10;;;;;;;2.10;0.70;;;9.70;99.90;;;9.79;nan;99397.69;4990596;28;21000;-67
2023/04/12 06:49:38;;;;;;;1.17;1.07;;;9.70;99.90;;;9.85;nan;99391.09;4987754;28;21221;-68
2023/04/12 06:52:05;;;;;;;1.70;0.60;;;9.70;99.90;;;9.89;nan;99389.88;4982418;28;21303;-67
2023/04/12 06:54:35;;;;;;;1.27;0.60;;;9.80;99.90;;;9.91;nan;99385.34;4990268;28;20663;-69
2023/04/12 06:57:02;;;;;;;1.70;1.13;;;9.80;99.90;;;9.92;nan;99385.22;4991635;28;20630;-67
2023/04/12 06:59:29;;;;;;;0.90;0.90;;;9.80;99.90;;;9.94;nan;99392.91;4990552;28;20634;-67
2023/04/12 07:01:56;;;;;;;0.80;0.80;;;9.80;99.90;;;9.92;nan;99387.00;4991081;28;20666;-67
2023/04/12 07:04:23;;;;;;;1.07;0.97;;;9.80;99.90;;;9.93;nan;99380.81;4990789;28;20677;-67
2023/04/12 07:06:50;;;;;;;0.80;0.63;;;9.80;99.90;;;10.02;nan;99373.03;4991476;28;20638;-65
2023/04/12 07:09:18;;;;;;;0.70;0.70;;;9.80;99.90;;;10.03;nan;99372.06;4990936;28;20622;-67
2023/04/12 07:11:45;;;;;;;1.83;0.60;;;9.90;99.90;;;10.10;nan;99365.38;4990237;28;20670;-67
2023/04/12 07:14:12;;;;;;;1.73;0.80;;;9.90;99.90;;;10.20;nan;99341.91;4991466;28;20622;-68
2023/04/12 07:16:39;;;;;;;0.60;0.60;;;10.00;99.90;;;10.23;nan;99332.97;4991226;28;20622;-67
2023/04/12 07:19:07;;;;;;;0.80;0.80;;;10.10;99.90;;;10.23;nan;99333.81;4991011;28;20638;-69
2023/04/12 07:21:34;;;;;;;0.43;0.43;;;10.10;99.90;;;10.22;nan;99326.97;4991790;28;20742;-66
2023/04/12 07:24:01;;;;;;;0.77;0.77;;;10.10;99.90;;;10.27;nan;99329.97;4989585;28;20624;-67
2023/04/12 07:26:29;;;;;;;0.40;0.40;;;10.10;99.90;;;10.37;nan;99322.13;4992055;28;20623;-67
2023/04/12 07:28:56;;;;;;;1.20;1.10;;;10.20;99.90;;;10.32;nan;99319.13;4991049;28;20622;-67
2023/04/12 07:31:23;;;;;;;1.00;1.00;;;10.20;99.90;;;10.37;nan;99309.09;4989912;28;20723;-66
2023/04/12 07:33:50;;;;;;;0.90;0.90;;;10.30;99.90;;;10.38;nan;99301.13;4990794;28;21178;-67
2023/04/12 07:36:20;;;;;;;1.27;0.73;;;10.20;99.90;;;10.37;nan;99293.47;4978190;28;20680;-67
2023/04/12 07:38:47;;;;;;;0.73;0.73;;;10.20;99.90;;;10.44;nan;99284.91;4991375;28;20689;-68
2023/04/12 07:41:14;;;;;;;0.20;0.20;;;10.30;99.90;;;10.51;nan;99288.59;4989769;28;20626;-66
2023/04/12 07:43:41;;;;;;;1.00;1.00;;;10.40;99.90;;;10.51;nan;99286.00;4991582;28;21043;-67
2023/04/12 07:46:08;;;;;;;0.83;0.77;;;10.40;99.90;;;10.55;nan;99274.31;4981942;28;20662;-67
2023/04/12 07:48:35;;;;;;;1.63;1.27;;;10.40;99.90;;;10.55;nan;99261.28;4990459;28;20689;-67
2023/04/12 07:51:03;;;;;;;0.90;0.90;;;10.40;99.90;;;10.58;nan;99263.63;4990804;28;20662;-67
2023/04/12 07:53:30;;;;;;;1.03;0.60;;;10.40;99.90;;;10.59;nan;99260.03;4991602;28;20676;-67
2023/04/12 07:55:57;;;;;;;2.40;1.20;;;10.40;99.90;;;10.60;nan;99253.84;4992068;28;20669;-66
2023/04/12 07:58:24;;;;;;;0.70;0.40;;;10.40;99.90;;;10.64;nan;99250.00;4990520;28;20722;-66
2023/04/12 08:00:53;;;;;;;5.13;1.00;;;10.50;99.90;;;10.65;nan;99241.19;4989862;28;20641;-67
2023/04/12 08:03:20;;;;;;;0.40;0.40;;;10.50;99.90;;;10.63;nan;99253.56;4987228;28;20646;-66
2023/04/12 08:05:52;;;;;;;0.30;0.30;;;10.50;99.90;;;10.63;nan;99245.72;4984755;28;20682;-65
2023/04/12 08:08:21;;;;;;;2.40;0.93;;;10.50;99.90;;;10.63;nan;99245.72;4990291;28;20641;-66
2023/04/12 08:10:48;;;;;;;1.00;0.90;;;10.50;99.90;;;10.55;nan;99243.03;4982830;28;21056;-67
2023/04/12 08:13:15;;;;;;;1.17;0.70;;;10.40;99.90;;;10.54;nan;99241.38;4988153;28;20643;-67
2023/04/12 08:15:42;;;;;;;1.50;1.40;;;10.40;99.90;;;10.58;nan;99240.13;4989953;28;20654;-66
2023/04/12 08:18:10;;;;;;;0.40;0.40;;;10.40;99.90;;;10.70;nan;99240.75;4988255;28;20715;-67
2023/04/12 08:20:39;;;;;;;0.83;0.83;;;10.50;99.90;;;10.78;nan;99240.84;4997522;28;20638;-66
2023/04/12 08:23:06;;;;;;;1.80;1.07;;;10.60;99.90;;;10.73;nan;99243.09;4990346;28;20638;-65
2023/04/12 08:25:33;;;;;;;1.00;0.90;;;10.60;99.90;;;10.77;nan;99245.28;4989505;28;21244;-65
2023/04/12 08:28:00;;;;;;;4.23;2.80;;;10.60;99.90;;;10.77;nan;99237.44;4991720;28;20638;-66
2023/04/12 08:30:27;;;;;;;4.53;3.33;;;10.60;99.90;;;10.74;nan;99235.13;4991881;28;20630;-66
2023/04/12 08:32:55;;;;;;;1.00;0.97;;;10.50;99.90;;;10.79;nan;99232.06;5002180;28;20633;-66
2023/04/12 08:35:22;;;;;;;0.60;0.60;;;10.60;99.90;;;10.81;nan;99230.97;4991054;28;20727;-66
2023/04/12 08:37:49;;;;;;;2.57;1.37;;;10.70;99.90;;;10.90;nan;99231.88;4990497;28;20711;-66
2023/04/12 08:40:16;;;;;;;0.40;0.40;;;10.70;99.90;;;10.91;nan;99234.34;4993882;28;20622;-66
2023/04/12 08:42:43;;;;;;;1.43;1.00;;;10.70;99.90;;;10.90;nan;99232.69;4992873;28;20638;-66
2023/04/12 08:45:11;;;;;;;0.83;0.83;;;10.70;99.90;;;10.88;nan;99229.41;4992471;28;20658;-66
2023/04/12 08:47:41;;;;;;;1.00;1.00;;;10.70;99.90;;;10.87;nan;99239.97;4989485;28;20681;-65
2023/04/12 08:50:12;;;;;;;0.80;0.63;;;10.70;99.90;;;10.90;nan;99224.84;4992843;28;20631;-66
2023/04/12 08:52:42;;;;;;;1.00;1.00;;;10.70;99.90;;;10.89;nan;99217.19;4982950;28;20670;-65
2023/04/12 08:55:10;;;;;;;0.70;0.70;;;10.70;99.90;;;11.02;nan;99206.38;4994779;28;20728;-65
2023/04/12 08:57:40;;;;;;;1.13;0.50;;;10.80;99.90;;;11.05;nan;99203.50;4995441;28;20626;-67
2023/04/12 09:00:09;;;;;;;3.80;1.43;;;10.80;99.90;;;11.14;nan;99211.25;4997931;28;20640;-67
2023/04/12 09:02:37;;;;;;;2.70;1.30;;;10.90;99.90;;;11.13;nan;99207.00;4995743;28;20642;-67
2023/04/12 09:05:05;;;;;;;1.40;1.30;;;11.00;99.90;;;11.17;nan;99205.75;4993337;28;20654;-67
2023/04/12 09:07:33;;;;;;;1.23;1.23;;;11.00;99.90;;;11.20;nan;99202.00;4991168;28;20642;-67
2023/04/12 09:10:00;;;;;;;0.93;0.93;;;11.00;99.90;;;11.21;nan;99206.25;4986521;28;21220;-65
2023/04/12 09:12:27;;;;;;;3.53;0.80;;;11.00;99.90;;;11.22;nan;99192.25;4986357;28;20677;-67
2023/04/12 09:15:13;;;;;;;4.33;1.20;;;11.10;99.90;;;11.18;nan;99178.66;4997734;28;21238;-67
2023/04/12 09:17:41;;;;;;;0.70;0.70;;;11.00;99.90;;;11.32;nan;99182.53;4995136;28;21048;-67
2023/04/12 09:20:17;;;;;;;1.60;0.90;;;11.10;99.90;;;11.36;nan;99170.81;4997827;28;20900;-67
2023/04/12 09:22:45;;;;;;;4.10;0.73;;;11.20;99.90;;;11.43;nan;99175.31;4992832;28;20637;-67
2023/04/12 09:25:14;;;;;;;1.17;1.17;;;11.20;99.90;;;11.49;nan;99166.03;4990321;28;21245;-65
2023/04/12 09:27:53;;;;;;;0.87;0.87;;;11.30;99.90;;;11.61;nan;99160.41;4987366;28;20679;-66
2023/04/12 09:30:20;;;;;;;2.30;1.40;;;11.40;99.90;;;11.75;nan;99148.63;4972922;28;20647;-68
2023/04/12 09:32:52;;;;;;;0.47;0.47;;;11.50;99.90;;;11.75;nan;99146.03;5002303;28;20661;-67
2023/04/12 09:35:35;;;;;;;1.53;1.00;;;11.60;99.90;;;11.76;nan;99149.44;5005019;28;20666;-68
2023/04/12 09:38:12;;;;;;;1.33;1.20;;;11.60;99.90;;;11.75;nan;99146.03;4997473;28;20643;-67
2023/04/12 09:40:39;;;;;;;0.97;0.83;;;11.60;99.90;;;11.87;nan;99150.00;4996898;28;20629;-68
2023/04/12 09:43:07;;;;;;;0.70;0.70;;;11.70;99.90;;;11.96;nan;99154.31;4997049;28;22511;-68
2023/04/12 09:45:37;;;;;;;1.83;1.03;;;11.70;99.90;;;12.01;nan;99148.63;4987428;28;20664;-67
2023/04/12 09:48:06;;;;;;;5.30;0.70;;;11.80;99.90;;;11.98;nan;99147.13;4994667;28;20634;-68
2023/04/12 09:50:33;;;;;;;1.43;0.77;;;11.80;99.90;;;11.97;nan;99142.06;4979895;28;21252;-65
2023/04/12 09:53:02;;;;;;;2.20;1.40;;;11.80;99.90;;;11.92;nan;99139.94;5013422;28;20722;-67
2023/04/12 09:55:31;;;;;;;0.80;0.80;;;11.80;99.90;;;11.94;nan;99137.97;5007415;28;21334;-67
2023/04/12 09:58:02;;;;;;;1.43;1.27;;;11.70;99.90;;;11.90;nan;99131.41;4993764;28;20633;-68
2023/04/12 10:00:33;;;;;;;0.97;0.97;;;11.70;99.90;;;11.88;nan;99135.16;5002580;28;20629;-67
2023/04/12 10:03:00;;;;;;;0.60;0.60;;;11.70;99.90;;;11.92;nan;99128.66;4998126;28;20638;-67
2023/04/12 10:05:27;;;;;;;0.93;0.90;;;11.70;99.90;;;11.97;nan;99127.19;4998063;28;20683;-67
2023/04/12 10:07:56;;;;;;;1.57;1.10;;;11.70;99.90;;;11.88;nan;99124.72;4998506;28;20627;-66
2023/04/12 10:10:23;;;;;;;0.83;0.83;;;11.70;99.90;;;11.88;nan;99122.91;4992094;28;20658;-67
2023/04/12 10:12:50;;;;;;;1.17;1.07;;;11.70;99.90;;;11.91;nan;99121.75;4992583;28;20670;-67
2023/04/12 10:15:19;;;;;;;1.63;1.07;;;11.70;99.90;;;11.88;nan;99117.69;4992278;28;20650;-67
2023/04/12 10:17:54;;;;;;;1.70;1.60;;;11.70;99.90;;;11.93;nan;99118.03;4991303;28;20638;-68
2023/04/12 10:20:22;;;;;;;1.40;1.30;;;11.80;99.90;;;12.03;nan;99112.69;4992697;28;20632;-67
2023/04/12 10:22:53;;;;;;;0.60;0.60;;;11.80;99.90;;;12.11;nan;99097.88;4995330;28;21286;-68
2023/04/12 10:25:22;;;;;;;2.40;1.10;;;11.90;99.90;;;12.14;nan;99105.38;5010628;28;20658;-65
2023/04/12 10:27:50;;;;;;;0.80;0.80;;;11.90;99.90;;;12.16;nan;99100.03;4990896;28;20618;-66
2023/04/12 10:30:30;;;;;;;0.73;0.70;;;12.00;99.90;;;12.18;nan;99096.25;4992059;28;20634;-66
2023/04/12 10:33:03;;;;;;;1.20;0.80;;;12.00;99.90;;;12.27;nan;99097.94;4990438;28;20674;-67
2023/04/12 10:35:54;;;;;;;0.70;0.70;;;12.10;99.90;;;12.38;nan;99102.88;4992236;28;20646;-67
2023/04/12 10:38:26;;;;;;;0.93;0.40;;;12.20;99.90;;;12.49;nan;99101.75;4994931;28;20641;-67
2023/04/12 10:41:15;;;;;;;0.67;0.60;;;12.30;99.90;;;12.60;nan;99098.03;4999146;28;21270;-67
2023/04/12 10:43:48;;;;;;;2.23;1.20;;;12.40;99.90;;;12.76;nan;99084.97;4995437;28;20631;-65
2023/04/12 10:46:37;;;;;;;3.73;1.27;;;12.60;99.90;;;12.87;nan;99090.72;4991706;28;20662;-66